Time;durP1;ratioP1;P1;durP2;ratioP2;P2;SDS_P1;SDS_P2;PMS_P1;PMS_P2;Temp;Humidity;BMP_temperature;BMP_pressure;BME280_temperature;BME280_humidity;BME280_pressure;Samples;Min_cycle;Max_cycle;Signal;HPM_P1;HPM_P2
2021/12/19 00:00:33;;;;;;;21.23;11.43;;;;;;;5.17;100.00;103500.78;5106756;28;20441;-92
2021/12/19 00:03:18;;;;;;;20.23;11.43;;;;;;;5.20;100.00;103501.72;5104358;28;20075;-92
2021/12/19 00:10:53;;;;;;;26.60;13.48;;;;;;;5.21;100.00;103499.97;5099182;28;20040;-92
2021/12/19 00:13:19;;;;;;;24.85;12.95;;;;;;;5.17;100.00;103483.19;5096136;28;20146;-92
2021/12/19 00:15:44;;;;;;;22.63;13.60;;;;;;;5.21;100.00;103489.41;5103409;28;20124;-92
2021/12/19 00:18:09;;;;;;;22.20;12.93;;;;;;;5.22;100.00;103493.81;5093752;28;20114;-90
2021/12/19 00:20:34;;;;;;;20.67;11.90;;;;;;;5.20;100.00;103477.06;5095475;28;20027;-91
2021/12/19 00:23:00;;;;;;;24.42;12.50;;;;;;;5.20;100.00;103480.59;5108094;28;20059;-92
2021/12/19 00:25:25;;;;;;;20.42;11.82;;;;;;;5.16;100.00;103472.63;5103453;28;20062;-91
2021/12/19 00:27:50;;;;;;;18.52;11.10;;;;;;;5.20;100.00;103479.72;5109449;28;20089;-92
2021/12/19 00:30:16;;;;;;;19.17;11.05;;;;;;;5.18;100.00;103470.88;5077622;28;20079;-91
2021/12/19 00:32:41;;;;;;;18.05;10.88;;;;;;;5.20;100.00;103477.06;5090465;28;20020;-92
2021/12/19 00:35:07;;;;;;;18.83;9.90;;;;;;;5.19;100.00;103467.38;5092299;28;20358;-91
2021/12/19 00:37:32;;;;;;;19.13;10.00;;;;;;;5.21;100.00;103469.16;5110612;28;20016;-91
2021/12/19 00:39:58;;;;;;;18.00;10.90;;;;;;;5.20;100.00;103470.03;5091036;28;20024;-91
2021/12/19 00:42:29;;;;;;;22.02;11.98;;;;;;;5.14;100.00;103459.41;5090209;28;20061;-91
2021/12/19 00:44:54;;;;;;;23.30;12.40;;;;;;;5.18;100.00;103462.94;5091895;28;20028;-91
2021/12/19 00:47:19;;;;;;;24.80;13.55;;;;;;;5.18;100.00;103457.66;5102164;28;20020;-91
2021/12/19 00:49:45;;;;;;;22.38;12.38;;;;;;;5.19;100.00;103462.09;5108245;28;20114;-91
2021/12/19 00:52:10;;;;;;;26.00;13.45;;;;;;;5.14;100.00;103456.75;5098474;28;20074;-92
2021/12/19 00:54:35;;;;;;;25.05;12.82;;;;;;;5.14;100.00;103462.03;5089664;28;20069;-91
2021/12/19 00:57:01;;;;;;;25.95;13.73;;;;;;;5.14;100.00;103461.13;5094547;28;20115;-91
2021/12/19 00:59:26;;;;;;;25.77;12.68;;;;;;;5.17;100.00;103464.69;5089672;28;20024;-91
2021/12/19 01:01:51;;;;;;;27.10;12.90;;;;;;;5.15;100.00;103466.44;5097276;28;20059;-91
2021/12/19 01:04:19;;;;;;;23.58;12.32;;;;;;;5.16;100.00;103467.34;5108714;28;20609;-91
2021/12/19 01:06:47;;;;;;;27.95;12.75;;;;;;;5.15;100.00;103458.53;5110233;28;20407;-92
2021/12/19 01:09:13;;;;;;;24.48;13.13;;;;;;;5.12;100.00;103452.31;5108817;28;20028;-91
2021/12/19 01:11:39;;;;;;;26.17;13.52;;;;;;;5.15;100.00;103460.28;5093865;28;20020;-91
2021/12/19 01:14:05;;;;;;;23.67;12.23;;;;;;;5.11;100.00;103453.19;5092194;28;20030;-91
2021/12/19 01:16:31;;;;;;;28.35;13.15;;;;;;;5.07;100.00;103454.00;5110042;28;20042;-91
2021/12/19 01:18:56;;;;;;;29.48;13.68;;;;;;;5.07;100.00;103448.75;5106844;28;20020;-92
2021/12/19 01:21:21;;;;;;;26.42;12.98;;;;;;;5.03;100.00;103441.63;5085893;28;20400;-91
2021/12/19 01:23:47;;;;;;;28.27;12.63;;;;;;;5.05;100.00;103439.88;5089424;28;20130;-91
2021/12/19 01:26:13;;;;;;;25.70;13.13;;;;;;;4.98;100.00;103431.03;5089080;28;20020;-91
2021/12/19 01:28:40;;;;;;;25.50;11.85;;;;;;;5.04;100.00;103441.66;5105702;28;20024;-92
2021/12/19 01:31:05;;;;;;;25.77;12.20;;;;;;;5.02;100.00;103442.47;5085284;28;20028;-91
2021/12/19 01:33:30;;;;;;;31.42;13.77;;;;;;;5.00;100.00;103440.72;5109652;28;20046;-92
2021/12/19 01:35:56;;;;;;;27.67;12.30;;;;;;;4.97;100.00;103430.13;5104872;28;20024;-92
2021/12/19 01:38:21;;;;;;;25.80;12.65;;;;;;;4.95;100.00;103425.69;5108429;28;20031;-91
2021/12/19 01:40:47;;;;;;;31.27;13.07;;;;;;;4.98;100.00;103429.25;5090508;28;20584;-92
2021/12/19 01:43:12;;;;;;;30.45;13.30;;;;;;;5.00;100.00;103437.19;5103431;28;20028;-92
2021/12/19 01:45:40;;;;;;;30.10;13.18;;;;;;;4.94;100.00;103427.44;5089578;28;20073;-90
2021/12/19 01:48:09;;;;;;;29.35;14.00;;;;;;;4.96;100.00;103438.91;5101400;28;20032;-91
2021/12/19 01:50:35;;;;;;;30.70;13.63;;;;;;;4.95;100.00;103429.22;5109472;28;20103;-89
2021/12/19 01:53:03;;;;;;;31.33;14.35;;;;;;;4.94;100.00;103427.44;5109180;28;20028;-90
2021/12/19 01:55:29;;;;;;;31.50;12.82;;;;;;;4.96;100.00;103428.34;5092424;28;20449;-91
2021/12/19 01:57:55;;;;;;;34.55;14.70;;;;;;;4.94;100.00;103427.44;5111102;28;20051;-92
2021/12/19 02:00:24;;;;;;;31.65;14.23;;;;;;;4.95;100.00;103426.56;5106116;28;20473;-90
2021/12/19 02:02:50;;;;;;;29.23;14.57;;;;;;;4.92;100.00;103420.38;5109049;28;20073;-90
2021/12/19 02:05:15;;;;;;;29.55;14.13;;;;;;;4.93;100.00;103417.75;5108056;28;20070;-90
2021/12/19 02:07:46;;;;;;;32.00;14.18;;;;;;;4.94;100.00;103423.94;5109180;28;20492;-90
2021/12/19 02:10:11;;;;;;;32.33;13.75;;;;;;;4.86;100.00;103404.47;5084497;28;20068;-90
2021/12/19 02:12:38;;;;;;;35.55;14.27;;;;;;;4.90;100.00;103417.72;5089327;28;20024;-91
2021/12/19 02:15:04;;;;;;;31.73;13.10;;;;;;;4.91;100.00;103414.19;5108329;28;20504;-90
2021/12/19 02:17:30;;;;;;;38.15;14.85;;;;;;;4.92;100.00;103418.59;5109717;28;20122;-91
2021/12/19 02:19:57;;;;;;;37.25;15.20;;;;;;;4.92;100.00;103423.88;5088291;28;20031;-89
2021/12/19 02:22:22;;;;;;;29.98;13.05;;;;;;;4.91;100.00;103422.13;5109495;28;20022;-90
2021/12/19 02:24:48;;;;;;;31.80;13.35;;;;;;;4.87;100.00;103415.03;5109718;28;20099;-88
2021/12/19 02:27:13;;;;;;;31.83;12.77;;;;;;;4.88;100.00;103413.28;5108395;28;20031;-90
2021/12/19 02:29:38;;;;;;;32.33;13.40;;;;;;;4.83;100.00;103410.56;5107532;28;20051;-90
2021/12/19 02:32:05;;;;;;;39.80;14.45;;;;;;;4.82;100.00;103403.53;5107916;28;20030;-89
2021/12/19 02:34:37;;;;;;;30.38;13.18;;;;;;;4.83;100.00;103399.13;5109763;28;20051;-90
2021/12/19 02:37:44;;;;;;;38.20;14.13;;;;;;;4.82;100.00;103392.97;5109539;28;20028;-89
2021/12/19 02:48:11;;;;;;;35.17;14.02;;;;;;;4.75;100.00;103391.97;5111578;28;20092;-90
2021/12/19 02:50:46;;;;;;;39.53;15.38;;;;;;;4.68;100.00;103373.41;5112553;28;20496;-90
2021/12/19 02:53:12;;;;;;;40.20;14.13;;;;;;;4.74;100.00;103381.41;5112530;28;20023;-90
2021/12/19 02:55:39;;;;;;;36.65;14.18;;;;;;;4.74;100.00;103384.06;5093852;28;20020;-90
2021/12/19 02:58:04;;;;;;;33.25;14.27;;;;;;;4.75;100.00;103378.78;5105036;28;20496;-90
2021/12/19 03:00:30;;;;;;;37.78;14.60;;;;;;;4.75;100.00;103370.00;5112463;28;20059;-90
2021/12/19 03:02:55;;;;;;;41.10;15.65;;;;;;;4.75;100.00;103378.78;5106948;28;20145;-89
2021/12/19 03:05:21;;;;;;;38.42;14.98;;;;;;;4.73;100.00;103371.75;5108315;28;20372;-90
2021/12/19 03:07:49;;;;;;;37.38;14.95;;;;;;;4.75;100.00;103364.72;5112296;28;20034;-91
2021/12/19 03:18:25;;;;;;;42.60;15.45;;;;;;;4.69;100.00;103364.66;5110251;28;20515;-91
2021/12/19 03:20:50;;;;;;;40.85;14.95;;;;;;;4.59;100.00;103353.06;5112271;28;20032;-90
2021/12/19 03:23:16;;;;;;;37.28;13.48;;;;;;;4.66;100.00;103359.31;5088464;28;20024;-90
2021/12/19 03:25:41;;;;;;;39.42;15.52;;;;;;;4.68;100.00;103360.22;5093761;28;20039;-91
2021/12/19 03:28:09;;;;;;;42.58;15.23;;;;;;;4.67;100.00;103356.69;5109786;28;20027;-91
2021/12/19 03:30:36;;;;;;;45.15;15.02;;;;;;;4.64;100.00;103342.56;5112572;28;20028;-90
2021/12/19 03:33:02;;;;;;;42.10;15.57;;;;;;;4.62;100.00;103346.94;5111083;28;20144;-91
2021/12/19 03:35:29;;;;;;;48.10;16.52;;;;;;;4.63;100.00;103333.78;5095344;28;20102;-89
2021/12/19 03:37:56;;;;;;;43.58;15.00;;;;;;;4.64;100.00;103339.94;5094766;28;20035;-90
2021/12/19 03:40:24;;;;;;;43.78;16.33;;;;;;;4.61;100.00;103330.25;5110087;28;20038;-90
2021/12/19 03:42:52;;;;;;;41.63;14.98;;;;;;;4.59;100.00;103331.97;5110211;28;20016;-89
2021/12/19 03:45:20;;;;;;;44.97;14.98;;;;;;;4.60;100.00;103335.47;5110420;28;20026;-91
2021/12/19 03:47:46;;;;;;;40.40;14.77;;;;;;;4.60;100.00;103330.19;5109649;28;20032;-91
2021/12/19 03:50:16;;;;;;;49.35;17.02;;;;;;;4.58;100.00;103324.03;5109844;28;20096;-91
2021/12/19 03:52:41;;;;;;;47.38;15.32;;;;;;;4.58;100.00;103332.84;5111651;28;20267;-91
2021/12/19 03:55:07;;;;;;;46.08;16.35;;;;;;;4.59;100.00;103328.44;5110033;28;20024;-91
2021/12/19 03:57:33;;;;;;;51.47;17.98;;;;;;;4.56;100.00;103321.38;5096110;28;20027;-91
2021/12/19 03:59:58;;;;;;;46.08;16.13;;;;;;;4.59;100.00;103324.03;5108561;28;20027;-90
2021/12/19 04:02:26;;;;;;;51.53;17.33;;;;;;;4.60;100.00;103324.94;5111112;28;20069;-91
2021/12/19 04:04:53;;;;;;;47.75;16.02;;;;;;;4.59;100.00;103318.78;5109374;28;20048;-91
2021/12/19 04:07:19;;;;;;;47.50;15.18;;;;;;;4.59;100.00;103316.13;5090426;28;20524;-91
2021/12/19 04:09:44;;;;;;;47.35;16.23;;;;;;;4.58;100.00;103314.38;5097844;28;20060;-91
2021/12/19 04:12:10;;;;;;;48.08;15.88;;;;;;;4.58;100.00;103314.38;5090329;28;20115;-90
2021/12/19 04:14:35;;;;;;;51.28;16.75;;;;;;;4.57;100.00;103319.63;5094073;28;20127;-91
2021/12/19 04:17:01;;;;;;;48.53;15.57;;;;;;;4.57;100.00;103323.16;5090250;28;20118;-91
2021/12/19 04:19:27;;;;;;;46.60;16.52;;;;;;;4.58;100.00;103308.22;5092048;28;20058;-90
2021/12/19 04:21:52;;;;;;;53.08;16.40;;;;;;;4.59;100.00;103309.97;5100245;28;20028;-90
2021/12/19 04:24:18;;;;;;;50.72;16.38;;;;;;;4.60;100.00;103307.38;5106364;28;20111;-90
2021/12/19 04:26:43;;;;;;;52.28;16.40;;;;;;;4.59;100.00;103299.41;5089969;28;20056;-91
2021/12/19 04:29:10;;;;;;;49.22;16.75;;;;;;;4.55;100.00;103298.50;5089346;28;20023;-90
2021/12/19 04:31:35;;;;;;;55.47;16.10;;;;;;;4.53;100.00;103300.25;5090969;28;20032;-92
2021/12/19 04:34:00;;;;;;;43.97;15.48;;;;;;;4.54;100.00;103291.44;5101436;28;20035;-91
2021/12/19 04:36:31;;;;;;;46.35;15.55;;;;;;;4.52;100.00;103281.78;5091147;28;20350;-92
2021/12/19 04:42:13;;;;;;;;;;;;;;;4.58;100.00;103282.72;5111895;28;20039;-92
2021/12/19 04:55:40;;;;;;;32.20;12.50;;;;;;;4.47;100.00;103258.84;5102954;28;20036;-91
2021/12/19 05:00:42;;;;;;;34.65;11.73;;;;;;;4.44;100.00;103273.75;5090582;28;20032;-91
2021/12/19 05:03:40;;;;;;;31.47;11.93;;;;;;;4.30;100.00;103235.75;5092905;28;20770;-91
2021/12/19 05:06:02;;;;;;;32.38;12.18;;;;;;;4.44;100.00;103258.81;5109273;28;20446;-91
2021/12/19 05:16:29;;;;;;;26.17;10.57;;;;;;;4.42;100.00;103255.25;5110179;28;19916;-92
2021/12/19 05:19:02;;;;;;;30.65;10.93;;;;;;;4.41;100.00;103252.59;5108348;28;20449;-91
2021/12/19 05:21:29;;;;;;;26.55;10.88;;;;;;;4.40;100.00;103246.44;5108833;28;20590;-90
2021/12/19 05:26:22;;;;;;;32.00;10.65;;;;;;;4.37;100.00;103262.22;5110443;28;20044;-91
2021/12/19 05:28:48;;;;;;;27.90;11.00;;;;;;;4.28;100.00;103251.56;5106657;28;20019;-90
2021/12/19 05:31:15;;;;;;;27.27;11.15;;;;;;;4.35;100.00;103266.59;5109078;28;20577;-90
2021/12/19 05:33:40;;;;;;;26.75;10.63;;;;;;;4.36;100.00;103267.50;5109916;28;20016;-90
2021/12/19 05:44:09;;;;;;;24.58;10.38;;;;;;;4.33;100.00;103257.78;5109931;28;20020;-90
2021/12/19 05:47:01;;;;;;;28.75;11.90;;;;;;;4.37;100.00;103251.69;5108468;28;20049;-90
2021/12/19 05:49:27;;;;;;;29.33;10.82;;;;;;;4.40;100.00;103264.91;5097602;28;20031;-90
2021/12/19 05:51:53;;;;;;;32.95;11.50;;;;;;;4.34;100.00;103249.00;5089457;28;20024;-90
2021/12/19 05:54:18;;;;;;;30.08;10.45;;;;;;;4.40;100.00;103253.47;5106599;28;20438;-90
2021/12/19 05:56:44;;;;;;;29.95;11.13;;;;;;;4.40;100.00;103256.13;5108674;28;20058;-91
2021/12/19 05:59:10;;;;;;;29.27;9.60;;;;;;;4.38;100.00;103248.16;5078766;28;20069;-89
2021/12/19 06:01:38;;;;;;;32.80;10.73;;;;;;;4.32;100.00;103245.47;5089251;28;20039;-90
2021/12/19 06:04:04;;;;;;;33.00;10.60;;;;;;;4.34;100.00;103237.56;5104512;28;20035;-90
2021/12/19 06:06:29;;;;;;;28.75;10.68;;;;;;;4.38;100.00;103244.66;5108804;28;20083;-90
2021/12/19 06:09:05;;;;;;;32.05;10.25;;;;;;;4.37;100.00;103250.78;5105820;28;20534;-89
2021/12/19 06:11:31;;;;;;;33.67;10.95;;;;;;;4.34;100.00;103248.09;5102327;28;20039;-91
2021/12/19 06:13:56;;;;;;;32.03;11.15;;;;;;;4.31;100.00;103248.09;5103866;28;20024;-91
2021/12/19 06:16:21;;;;;;;36.08;12.38;;;;;;;4.30;100.00;103244.53;5108522;28;20114;-91
2021/12/19 06:18:47;;;;;;;28.80;11.32;;;;;;;4.29;100.00;103236.63;5102228;28;20051;-91
2021/12/19 06:21:12;;;;;;;34.03;11.63;;;;;;;4.25;100.00;103238.31;5097169;28;20084;-91
2021/12/19 06:23:39;;;;;;;31.30;12.48;;;;;;;4.28;100.00;103246.28;5112542;28;20019;-91
2021/12/19 06:26:04;;;;;;;29.63;11.27;;;;;;;4.27;100.00;103243.63;5090210;28;20031;-90
2021/12/19 06:28:30;;;;;;;35.90;12.60;;;;;;;4.27;100.00;103249.78;5106681;28;20324;-91
2021/12/19 06:30:55;;;;;;;39.13;12.32;;;;;;;4.21;100.00;103241.78;5093203;28;20024;-91
2021/12/19 06:33:21;;;;;;;36.42;12.77;;;;;;;4.23;100.00;103245.34;5110909;28;20482;-90
2021/12/19 06:35:46;;;;;;;39.15;14.55;;;;;;;4.21;100.00;103239.16;5112651;28;20472;-91
2021/12/19 06:38:13;;;;;;;39.67;13.63;;;;;;;4.19;100.00;103230.34;5109123;28;20519;-90
2021/12/19 06:40:38;;;;;;;31.60;12.02;;;;;;;4.16;100.00;103225.91;5091746;28;20020;-90
2021/12/19 06:43:04;;;;;;;28.38;11.85;;;;;;;4.17;100.00;103232.94;5095991;28;20368;-90
2021/12/19 06:45:29;;;;;;;31.17;11.57;;;;;;;4.10;100.00;103219.69;5111204;28;20031;-91
2021/12/19 06:47:55;;;;;;;23.83;10.18;;;;;;;4.13;100.00;103211.78;5083818;28;20036;-90
2021/12/19 06:50:20;;;;;;;21.90;9.20;;;;;;;4.11;100.00;103221.44;5114669;28;20023;-90
2021/12/19 06:52:47;;;;;;;17.80;7.55;;;;;;;4.09;100.00;103215.25;5095546;28;20517;-90
2021/12/19 06:55:15;;;;;;;18.65;7.47;;;;;;;4.09;100.00;103209.97;5111482;28;20114;-90
2021/12/19 06:57:40;;;;;;;21.10;8.40;;;;;;;4.07;100.00;103201.19;5089195;28;20486;-90
2021/12/19 07:00:25;;;;;;;19.80;8.88;;;;;;;4.04;100.00;103190.59;5092343;28;20028;-90
2021/12/19 07:02:53;;;;;;;21.23;9.20;;;;;;;4.09;100.00;103199.44;5092754;28;20111;-91
2021/12/19 07:05:18;;;;;;;20.02;9.38;;;;;;;4.10;100.00;103209.16;5092200;28;20055;-90
2021/12/19 07:07:44;;;;;;;20.40;9.18;;;;;;;4.09;100.00;103196.81;5098818;28;20028;-90
2021/12/19 07:10:09;;;;;;;22.73;9.98;;;;;;;4.06;100.00;103189.75;5111578;28;20098;-91
2021/12/19 07:12:35;;;;;;;24.88;10.52;;;;;;;4.07;100.00;103193.28;5091869;28;20046;-91
2021/12/19 07:15:01;;;;;;;29.55;12.32;;;;;;;4.08;100.00;103189.78;5091781;28;20028;-90
2021/12/19 07:17:26;;;;;;;24.70;11.82;;;;;;;4.09;100.00;103200.31;5093477;28;20027;-90
2021/12/19 07:19:52;;;;;;;30.58;13.27;;;;;;;4.10;100.00;103183.66;5092861;28;20516;-91
2021/12/19 07:22:18;;;;;;;30.92;12.45;;;;;;;4.13;100.00;103195.97;5092294;28;20086;-91
2021/12/19 07:24:45;;;;;;;28.73;12.77;;;;;;;4.11;100.00;103192.47;5111275;28;20055;-90
2021/12/19 07:27:11;;;;;;;29.67;12.57;;;;;;;4.14;100.00;103190.75;5103454;28;20042;-90
2021/12/19 07:29:36;;;;;;;26.90;12.02;;;;;;;4.13;100.00;103188.06;5105191;28;20032;-90
2021/12/19 07:32:02;;;;;;;32.63;13.27;;;;;;;4.15;100.00;103191.63;5091200;28;20028;-90
2021/12/19 07:34:33;;;;;;;32.17;13.90;;;;;;;4.17;100.00;103193.41;5090640;28;20020;-89
2021/12/19 07:37:00;;;;;;;31.73;13.95;;;;;;;4.16;100.00;103188.13;5091936;28;20024;-90
2021/12/19 07:39:39;;;;;;;37.67;14.38;;;;;;;4.18;100.00;103182.03;5091073;28;20024;-90
2021/12/19 07:42:08;;;;;;;37.63;14.68;;;;;;;4.22;100.00;103190.81;5092691;28;20414;-91
2021/12/19 07:44:34;;;;;;;36.15;14.65;;;;;;;4.23;100.00;103184.72;5091499;28;20111;-91
2021/12/19 07:47:00;;;;;;;41.15;16.63;;;;;;;4.23;100.00;103184.72;5094948;28;20118;-90
2021/12/19 07:49:25;;;;;;;37.75;15.73;;;;;;;4.24;100.00;103179.44;5110340;28;20126;-91
2021/12/19 07:51:50;;;;;;;38.65;15.68;;;;;;;4.26;100.00;103174.19;5098996;28;20070;-92
2021/12/19 07:54:16;;;;;;;42.17;16.80;;;;;;;4.21;100.00;103166.22;5098890;28;20050;-90
2021/12/19 07:56:41;;;;;;;40.88;15.65;;;;;;;4.23;100.00;103167.13;5108033;28;20431;-92
2021/12/19 07:59:07;;;;;;;38.60;16.00;;;;;;;4.27;100.00;103164.56;5109275;28;20031;-91
2021/12/19 08:01:33;;;;;;;42.25;18.08;;;;;;;4.29;100.00;103165.44;5112927;28;20026;-91
2021/12/19 08:03:58;;;;;;;42.40;16.65;;;;;;;4.27;100.00;103168.06;5101886;28;20476;-92
2021/12/19 08:06:24;;;;;;;48.78;19.15;;;;;;;4.27;100.00;103157.53;5109471;28;20089;-91
2021/12/19 08:08:53;;;;;;;45.35;17.45;;;;;;;4.32;100.00;103169.00;5109887;28;20027;-92
2021/12/19 08:14:04;;;;;;;48.47;19.70;;;;;;;4.32;100.00;103155.81;5111037;28;20442;-92
2021/12/19 08:16:29;;;;;;;48.67;19.20;;;;;;;4.36;100.00;103165.53;5112150;28;20059;-91
2021/12/19 08:18:55;;;;;;;54.05;19.98;;;;;;;4.37;100.00;103169.94;5110021;28;20142;-92
2021/12/19 08:21:20;;;;;;;56.08;20.23;;;;;;;4.33;100.00;103159.34;5111322;28;20030;-90
2021/12/19 08:23:45;;;;;;;58.65;21.02;;;;;;;4.37;100.00;103159.38;5109503;28;20274;-91
2021/12/19 08:26:11;;;;;;;57.80;21.15;;;;;;;4.41;100.00;103161.19;5110384;28;20059;-91
2021/12/19 08:28:36;;;;;;;55.20;21.33;;;;;;;4.43;100.00;103159.47;5089247;28;20122;-90
2021/12/19 08:31:02;;;;;;;54.88;20.00;;;;;;;4.41;100.00;103152.41;5109998;28;20282;-91
2021/12/19 08:33:27;;;;;;;56.10;19.20;;;;;;;4.43;100.00;103154.22;5110077;28;20058;-91
2021/12/19 08:35:52;;;;;;;53.35;20.42;;;;;;;4.47;100.00;103153.38;5103279;28;20518;-90
2021/12/19 08:38:18;;;;;;;55.58;18.85;;;;;;;4.51;100.00;103156.91;5083865;28;20204;-89
2021/12/19 08:40:45;;;;;;;53.30;18.40;;;;;;;4.53;100.00;103156.94;5087463;28;20028;-91
2021/12/19 08:43:11;;;;;;;49.92;17.83;;;;;;;4.57;100.00;103161.38;5107694;28;20023;-88
2021/12/19 08:45:36;;;;;;;45.10;17.52;;;;;;;4.54;100.00;103159.59;5090988;28;20068;-93
2021/12/19 08:48:03;;;;;;;46.15;17.05;;;;;;;4.57;100.00;103161.38;5107139;28;20028;-92
2021/12/19 08:50:29;;;;;;;44.65;17.23;;;;;;;4.57;100.00;103158.75;5091720;28;20035;-95
2021/12/19 08:52:54;;;;;;;47.22;16.40;;;;;;;4.56;100.00;103154.34;5110148;28;20019;-95
2021/12/19 08:55:20;;;;;;;42.20;16.33;;;;;;;4.61;100.00;103157.91;5105610;28;20111;-95
2021/12/19 08:57:46;;;;;;;36.05;14.68;;;;;;;4.64;100.00;103157.91;5102402;28;20485;-95
2021/12/19 09:00:13;;;;;;;38.38;15.32;;;;;;;4.61;100.00;103134.16;5090562;28;20500;-94
2021/12/19 09:02:41;;;;;;;41.63;16.25;;;;;;;4.67;100.00;103136.84;5073782;28;20031;-96
2021/12/19 09:05:08;;;;;;;40.33;16.27;;;;;;;4.69;100.00;103146.56;5096310;28;20122;-95
2021/12/19 09:07:33;;;;;;;32.00;13.98;;;;;;;4.74;100.00;103147.50;5098521;28;20485;-94
2021/12/19 09:09:58;;;;;;;34.85;14.73;;;;;;;4.71;100.00;103128.09;5091225;28;20113;-96
2021/12/19 09:12:25;;;;;;;39.42;14.60;;;;;;;4.81;100.00;103150.19;5106747;28;20050;-95
2021/12/19 09:14:50;;;;;;;29.35;12.32;;;;;;;4.75;100.00;103133.44;5089180;28;20024;-96
2021/12/19 09:17:16;;;;;;;33.17;13.65;;;;;;;4.83;100.00;103137.91;5097473;28;20085;-95
2021/12/19 09:19:41;;;;;;;27.77;12.65;;;;;;;4.80;100.00;103127.31;5110543;28;20023;-93
2021/12/19 09:22:06;;;;;;;34.67;12.85;;;;;;;4.85;100.00;103134.41;5098963;28;20039;-94
2021/12/19 09:24:32;;;;;;;32.63;12.70;;;;;;;4.89;100.00;103128.31;5079053;28;20039;-94
2021/12/19 09:26:57;;;;;;;33.08;13.82;;;;;;;4.92;100.00;103130.94;5094765;28;20032;-90
2021/12/19 09:29:26;;;;;;;31.25;12.90;;;;;;;4.92;100.00;103130.94;5100942;28;20032;-92
2021/12/19 09:31:51;;;;;;;28.60;12.15;;;;;;;4.92;100.00;103136.22;5113574;28;20085;-93
2021/12/19 09:34:16;;;;;;;26.83;11.48;;;;;;;4.90;100.00;103124.78;5104044;28;20402;-92
2021/12/19 09:36:42;;;;;;;31.98;13.10;;;;;;;4.95;100.00;103140.66;5103870;28;20098;-91
2021/12/19 09:39:07;;;;;;;31.17;12.57;;;;;;;4.92;100.00;103130.94;5109263;28;20019;-90
2021/12/19 09:41:36;;;;;;;32.13;12.05;;;;;;;4.96;100.00;103132.75;5090512;28;20461;-91
2021/12/19 09:44:05;;;;;;;30.00;12.20;;;;;;;5.02;100.00;103131.94;5098584;28;20024;-91
2021/12/19 09:46:35;;;;;;;30.40;12.38;;;;;;;5.03;100.00;103127.53;5100090;28;20545;-91
2021/12/19 09:49:01;;;;;;;26.00;11.98;;;;;;;5.02;100.00;103120.47;5088828;28;20039;-92
2021/12/19 09:51:26;;;;;;;24.65;10.52;;;;;;;5.00;100.00;103115.19;5088039;28;20251;-91
2021/12/19 09:53:52;;;;;;;25.95;11.65;;;;;;;5.07;100.00;103127.56;5106764;28;20531;-90
2021/12/19 09:56:17;;;;;;;24.25;11.70;;;;;;;5.07;100.00;103122.28;5098290;28;20024;-90
2021/12/19 09:58:42;;;;;;;22.25;10.43;;;;;;;5.04;100.00;103114.34;5092457;28;20468;-90
2021/12/19 10:01:12;;;;;;;23.10;10.55;;;;;;;5.10;100.00;103118.78;5106024;28;20027;-92
2021/12/19 10:03:38;;;;;;;20.40;10.48;;;;;;;5.12;100.00;103132.88;5089346;28;20048;-93
2021/12/19 10:06:21;;;;;;;23.15;10.38;;;;;;;5.12;100.00;103128.47;5098131;28;20092;-93
2021/12/19 10:09:12;;;;;;;22.50;10.68;;;;;;;5.15;100.00;103125.88;5105900;28;20034;-92
2021/12/19 10:14:35;;;;;;;21.55;9.88;;;;;;;5.16;100.00;103116.19;5103983;28;20023;-90
2021/12/19 10:17:16;;;;;;;20.35;9.70;;;;;;;5.20;100.00;103110.06;5100662;28;20032;-91
2021/12/19 10:19:50;;;;;;;24.95;12.38;;;;;;;5.20;100.00;103112.72;5107533;28;20510;-93
2021/12/19 10:22:54;;;;;;;17.08;8.30;;;;;;;5.22;100.00;103114.50;5104341;28;20032;-91
2021/12/19 10:25:23;;;;;;;21.38;9.57;;;;;;;5.18;100.00;103096.88;5024527;28;20329;-90
2021/12/19 10:27:50;;;;;;;15.32;7.93;;;;;;;5.21;100.00;103101.28;5021459;28;20127;-90
2021/12/19 10:30:26;;;;;;;16.85;8.98;;;;;;;5.21;100.00;103091.59;5005299;28;20041;-93
2021/12/19 10:33:00;;;;;;;16.02;8.40;;;;;;;5.21;100.00;103090.72;5006213;28;20021;-91
2021/12/19 10:35:39;;;;;;;15.52;8.48;;;;;;;5.21;100.00;103082.78;5024113;28;20510;-91
2021/12/19 10:38:06;;;;;;;17.08;7.88;;;;;;;5.21;100.00;103090.72;5011619;28;20037;-91
2021/12/19 10:40:32;;;;;;;15.55;8.38;;;;;;;5.21;100.00;103083.66;5024544;28;20029;-90
2021/12/19 10:43:04;;;;;;;18.83;9.50;;;;;;;5.22;100.00;103087.19;5024010;28;20037;-91
2021/12/19 10:45:43;;;;;;;18.77;9.32;;;;;;;5.21;100.00;103080.16;5009418;28;20056;-93
2021/12/19 10:48:14;;;;;;;19.60;9.27;;;;;;;5.21;100.00;103066.94;5019300;28;20589;-92
2021/12/19 10:50:46;;;;;;;16.67;9.05;;;;;;;5.24;100.00;103070.50;5015903;28;20042;-91
2021/12/19 10:53:13;;;;;;;19.67;10.07;;;;;;;5.23;100.00;103067.84;5023690;28;20106;-90
2021/12/19 10:55:43;;;;;;;18.25;9.32;;;;;;;5.27;100.00;103069.66;5044240;28;20038;-91
2021/12/19 10:58:22;;;;;;;18.63;8.88;;;;;;;5.32;100.00;103062.63;5103806;28;20035;-95
2021/12/19 11:00:58;;;;;;;16.23;8.65;;;;;;;5.32;100.00;103060.00;5107906;28;20016;-90
2021/12/19 11:03:44;;;;;;;18.73;8.95;;;;;;;5.38;100.00;103061.78;5088597;28;20129;-90
2021/12/19 11:06:39;;;;;;;17.33;8.95;;;;;;;5.41;100.00;103062.69;5108724;28;20115;-91
2021/12/19 11:09:08;;;;;;;15.20;8.73;;;;;;;5.37;100.00;103039.78;5100411;28;20055;-89
2021/12/19 11:11:46;;;;;;;15.88;8.13;;;;;;;5.47;100.00;103045.97;5110119;28;20027;-89
2021/12/19 11:14:14;;;;;;;15.23;8.40;;;;;;;5.43;100.00;103046.84;5100655;28;20050;-89
2021/12/19 11:16:40;;;;;;;15.60;8.23;;;;;;;5.40;100.00;103028.34;5101051;28;20496;-89
2021/12/19 11:19:06;;;;;;;16.58;7.85;;;;;;;5.43;100.00;103031.91;5093311;28;20519;-89
2021/12/19 11:21:35;;;;;;;20.35;10.15;;;;;;;5.48;100.00;103029.28;5093504;28;20028;-91
2021/12/19 11:24:04;;;;;;;17.33;9.65;;;;;;;5.49;100.00;103023.13;5091060;28;20095;-91
2021/12/19 11:26:29;;;;;;;13.60;8.60;;;;;;;5.52;100.00;103009.94;5106265;28;20034;-89
2021/12/19 11:28:56;;;;;;;12.88;7.57;;;;;;;5.57;100.00;103015.22;5090822;28;20035;-87
2021/12/19 11:31:24;;;;;;;12.70;7.43;;;;;;;5.56;100.00;103010.81;5091672;28;20706;-82
2021/12/19 11:34:00;;;;;;;12.40;7.97;;;;;;;5.52;100.00;102999.38;5090725;28;20492;-83
2021/12/19 11:36:31;;;;;;;12.77;7.13;;;;;;;5.49;100.00;102997.59;5092517;28;20028;-81
2021/12/19 11:39:00;;;;;;;12.00;6.78;;;;;;;5.48;100.00;102995.81;5110676;28;20047;-82
2021/12/19 11:41:27;;;;;;;9.95;5.80;;;;;;;5.48;100.00;102989.66;5107734;28;20511;-83
2021/12/19 11:43:55;;;;;;;12.25;6.95;;;;;;;5.54;100.00;102989.66;5110511;28;20484;-82
2021/12/19 11:46:43;;;;;;;8.32;5.57;;;;;;;5.58;100.00;102986.16;5096831;28;20125;-89
2021/12/19 11:49:18;;;;;;;9.23;5.80;;;;;;;5.58;100.00;102987.94;5090278;28;20102;-85
2021/12/19 11:51:43;;;;;;;9.85;5.65;;;;;;;5.58;100.00;102985.28;5094552;28;20031;-90
2021/12/19 11:54:15;;;;;;;9.02;5.50;;;;;;;5.60;100.00;102980.88;5090229;28;20039;-91
2021/12/19 11:57:07;;;;;;;9.82;5.80;;;;;;;5.63;100.00;102984.41;5092036;28;20045;-91
2021/12/19 11:59:33;;;;;;;10.07;6.43;;;;;;;5.63;100.00;102976.50;5091380;28;20023;-88
2021/12/19 12:02:21;;;;;;;9.85;5.68;;;;;;;5.67;100.00;102964.19;5091663;28;20028;-88
2021/12/19 12:05:14;;;;;;;9.40;5.95;;;;;;;5.68;100.00;102972.09;5110350;28;20094;-88
2021/12/19 12:08:04;;;;;;;9.50;5.63;;;;;;;5.75;100.00;102978.31;5094273;28;20072;-88
2021/12/19 12:10:52;;;;;;;11.50;6.10;;;;;;;5.74;100.00;102961.56;5101558;28;20031;-88
2021/12/19 12:13:23;;;;;;;10.10;5.90;;;;;;;5.75;100.00;102967.72;5074870;27;20036;-88
2021/12/19 12:15:57;;;;;;;11.80;7.13;;;;;;;5.72;100.00;102965.94;5087889;28;20023;-88
2021/12/19 12:18:35;;;;;;;7.32;5.00;;;;;;;5.73;100.00;102964.22;5089437;28;20111;-89